• Join FlightAware (Why Join?)
  • Login
  • US Flag 
12:49AM EST


 

Airport Tracker/Info


-or-


 

Live Flight TrackerFlight Track Log ✈ N18BF ✈ 29-Jul-2014 ✈ KMAF - KSGR

Flight Track Log - Related Links

Times and Time Zones

All times are in EDT time to prevent confusion due to time zone crossing. See the N18BF flight status page for this flight to view local times or setup timezone preferences in your user account.

Time Position Orientation Groundspeed Altitude Reporting Facility
EDT Latitude Longitude Course Direction KTS MPH feet Rate Location/Type
03:35PM 31.8567 -102.0947 108° East 166 191 5,900  Level Houston Center
03:36PM 31.8408 -102.0425 110° East 166 191 7,000 960 Climbing Houston Center
03:37PM 31.8278 -101.9889 106° East 166 191 8,000 1,020 Climbing Houston Center
03:38PM 31.8108 -101.8284 108° East  Level FlightAware Approximate
03:38PM 31.8092 -101.9208 108° East 171 197 9,200  Level Fort Worth Center
03:39PM 31.7901 -101.7524 108° East  Level FlightAware Approximate
03:39PM 31.7947 -101.8631 106° East 179 206 10,200  Level Fort Worth Center
03:40PM 31.7694 -101.6765 108° East  Level FlightAware Approximate
03:40PM 31.7783 -101.8069 109° East 179 206 11,400  Level Fort Worth Center
03:41PM 31.7603 -101.7550 112° Southeast 176 203 12,600 720 Climbing Fort Worth Center
03:42PM 31.7425 -101.6997 111° Southeast 180 207 13,000 180 Climbing Fort Worth Center
03:43PM 31.7164 -101.6322 114° Southeast 219 252 13,000  Level Fort Worth Center
03:44PM 31.6858 -101.5472 113° Southeast 231 266 13,000  Level Fort Worth Center
03:45PM 31.6589 -101.4747 114° Southeast 240 276 13,000 660 Level Fort Worth Center
03:46PM 31.6333 -101.4036 113° Southeast 233 268 14,400 960 Climbing Fort Worth Center
03:47PM 31.6178 -101.3489 108° East 186 214 15,100 600 Climbing Fort Worth Center
03:48PM 31.5983 -101.2883 111° Southeast 195 224 15,700 600 Climbing Fort Worth Center
03:49PM 31.5789 -101.2286 111° Southeast 197 227 16,400 720 Climbing Fort Worth Center
03:50PM 31.5575 -101.1575 109° East 195 224 17,200 660 Climbing Fort Worth Center
03:51PM 31.5378 -101.0983 111° Southeast 195 224 17,800 420 Climbing Fort Worth Center
03:52PM 31.5189 -101.0394 111° Southeast 195 224 18,100 240 Climbing Fort Worth Center
03:53PM 31.4967 -100.9789 113° Southeast 201 231 18,400 300 Climbing Fort Worth Center
03:54PM 31.4742 -100.9158 113° Southeast 206 237 18,800 240 Climbing Fort Worth Center
03:55PM 31.4525 -100.8506 111° Southeast 210 242 18,900 60 Climbing Fort Worth Center
03:56PM 31.4208 -100.7633 113° Southeast 233 268 19,000  Climbing Fort Worth Center
03:58PM 31.3958 -100.6900 112° Southeast 238 274 19,000  Level Fort Worth Center
03:59PM 31.3708 -100.6164 112° Southeast 240 276 19,100  Climbing Fort Worth Center
04:00PM 31.3456 -100.5422 112° Southeast 242 278 19,100  Level Fort Worth Center
04:01PM 31.3208 -100.4683 111° Southeast 243 280 19,100  Level Fort Worth Center
04:02PM 31.2950 -100.3922 112° Southeast 249 287 19,100  Level Fort Worth Center
04:03PM 31.2639 -100.3028 112° Southeast 249 287 19,100  Level Fort Worth Center
04:04PM 31.2383 -100.2281 112° Southeast 249 287 19,100  Level Fort Worth Center
04:05PM 31.2119 -100.1517 112° Southeast 250 288 19,100  Level Fort Worth Center
04:06PM 31.1869 -100.0772 111° Southeast 250 288 19,100  Level Fort Worth Center
04:07PM 31.1603 -100.0022 113° Southeast 250 288 19,100  Level Fort Worth Center
04:08PM 31.1342 -99.9264 112° Southeast 250 288 19,100  Level Fort Worth Center
04:09PM 31.1022 -99.8361 112° Southeast 251 289 19,100  Level Fort Worth Center
04:10PM 31.0758 -99.7594 112° Southeast 251 289 19,100  Level Fort Worth Center
04:11PM 31.0511 -99.6839 111° Southeast 252 290 19,100  Level Houston Center
04:12PM 31.0258 -99.6078 111° Southeast 252 290 19,100  Level Houston Center
04:13PM 31.0000 -99.5328 112° Southeast 250 288 19,100  Level Houston Center
04:14PM 30.9742 -99.4569 112° Southeast 250 288 19,100  Level Houston Center
04:15PM 30.9481 -99.3817 112° Southeast 251 289 19,100  Level Houston Center
04:16PM 30.9219 -99.3069 112° Southeast 250 288 19,100  Level Houston Center
04:17PM 30.8919 -99.2156 111° Southeast 251 289 19,100  Level Houston Center
04:18PM 30.8708 -99.1458 109° East 251 289 19,100  Level Houston Center
04:19PM 30.8425 -99.0531 110° East 256 295 19,100  Level Houston Center
04:20PM 30.8211 -98.9742 108° East 256 295 19,100  Level Houston Center
04:21PM 30.7997 -98.8956 108° East 256 295 19,100  Level Houston Center
04:22PM 30.7794 -98.8161 107° East 256 295 19,100  Level Houston Center
04:23PM 30.7581 -98.7369 107° East 256 295 19,100  Level Houston Center
04:24PM 30.7361 -98.6581 108° East 256 295 19,100  Level Houston Center
04:25PM 30.7103 -98.5617 107° East 257 296 19,100  Level Houston Center
04:27PM 30.6892 -98.4847 108° East 256 295 19,100  Level Houston Center
04:28PM 30.6669 -98.4061 108° East 256 295 19,100  Level Houston Center
04:29PM 30.6419 -98.3300 111° Southeast 255 293 19,100  Level Houston Center
04:30PM 30.6161 -98.2525 111° Southeast 256 295 19,100  Level Houston Center
04:31PM 30.5956 -98.1556 104° East 257 296 19,100  Level Houston Center
04:32PM 30.5808 -98.0744 102° East 257 296 19,100  Level Houston Center
04:33PM 30.5644 -97.9944 103° East 258 297 19,100  Level Houston Center
04:34PM 30.5467 -97.9150 105° East 257 296 19,100  Level Houston Center
04:35PM 30.5297 -97.8336 104° East 258 297 19,100  Level Houston Center
04:36PM 30.5081 -97.7392 105° East 258 297 19,100  Level Houston Center
04:37PM 30.4903 -97.6586 104° East 257 296 19,100  Level Houston Center
04:38PM 30.4731 -97.5794 104° East 257 296 19,100  Level Houston Center
04:39PM 30.4386 -97.5078 119° Southeast 258 297 19,100  Level Houston Center
04:40PM 30.4006 -97.4381 122° Southeast 257 296 19,100  Level Houston Center
04:41PM 30.3528 -97.3578 125° Southeast 256 295 19,100  Level Houston Center
04:42PM 30.3056 -97.2969 132° Southeast 256 295 19,100  Level Houston Center
04:43PM 30.2586 -97.2353 131° Southeast 256 295 19,100  Level Houston Center
04:44PM 30.2122 -97.1725 131° Southeast 256 295 19,100  Level Houston Center
04:45PM 30.1667 -97.1092 130° Southeast 256 295 19,100  Level Houston Center
04:46PM 30.1203 -97.0464 130° Southeast 256 295 19,100  Level Houston Center
04:47PM 30.0650 -96.9700 130° Southeast 257 296 19,100  Level Houston Center
04:48PM 30.0200 -96.9058 129° Southeast 257 296 19,100  Level Houston Center
04:49PM 29.9742 -96.8425 130° Southeast 257 296 19,100  Level Houston Center
04:50PM 29.9289 -96.7800 130° Southeast 257 296 19,100  Level Houston Center
04:51PM 29.8822 -96.7175 131° Southeast 257 296 19,100  Level Houston Center
04:52PM 29.8256 -96.6425 131° Southeast 257 296 19,100  Level Houston Center
04:53PM 29.7794 -96.5800 130° Southeast 257 296 19,100 -360 Level Houston Center
04:54PM 29.7308 -96.5164 131° Southeast 258 297 18,400 -1,200 Descending Houston Center
04:56PM 29.6739 -96.4503 135° Southeast 286 329 16,600 -1,440 Descending Houston Center
04:57PM 29.6139 -96.3833 136° Southeast 296 341 15,500 -1,080 Descending Houston Center
04:57PM 29.5758 -96.3264 128° Southeast 273 314 14,800 -660 Descending Houston Center
04:58PM 29.5703 -96.3117 113° Southeast 276 318 14,800 -1,080 Level Houston Center
04:58PM 29.5300 -96.2547 129° Southeast 270 311 13,700 -1,380 Descending Houston Center
04:59PM 29.5133 -96.2300 128° Southeast 273 314 13,400 -720 Descending Houston Center
04:59PM 29.4783 -96.1886 134° Southeast 262 302 13,000 -540 Descending Houston Center
05:00PM 29.4747 -96.1619 99° East 263 303 12,900 -840 Descending Houston Center
05:00PM 29.4711 -96.1056 94° East 259 298 12,200 -960 Descending Houston Center
05:01PM 29.4758 -96.0797 78° East 260 299 11,900 -1,440 Descending Houston Center
05:01PM 29.4806 -96.0206 85° East 270 311 10,800 -1,500 Descending Houston Center
05:02PM 29.4836 -95.9928 83° East 269 310 10,300 -1,860 Descending Houston Center
05:02PM 29.4875 -95.9333 86° East 259 298 8,900 -1,920 Descending Houston Center
05:03PM 29.4914 -95.9117 78° East 263 303 8,400 -2,100 Descending Houston Center
05:03PM 29.4972 -95.8531 83° East 245 282 6,800 -2,100 Descending Houston Center
05:04PM 29.5011 -95.8342 77° East 249 287 6,300 -2,100 Descending Houston Center
05:04PM 29.5181 -95.7786 71° East 250 288 4,700 -1,740 Descending Houston Center
05:05PM 29.5244 -95.7597 69° East 249 287 4,500 -1,920 Descending Houston Center
05:05PM 29.5372 -95.7117 73° East 228 262 2,800 -2,700 Descending Houston Center
05:06PM 29.5453 -95.6775 75° East 228 262 1,800 -1,140 Descending Houston Center
05:06PM 29.5572 -95.6517 62° Northeast 195 224 1,700 -480 Descending Houston Center
05:07PM 29.5775 -95.6528 357° North 182 209 1,300 -1,140 Descending Houston Center
05:07PM 29.5933 -95.6569 347° North 97 112 600 -1,140 Descending Houston Center
05:08PM 29.6067 -95.6550 North 133 153 200 -780 Descending Houston Center
05:10PM 29.6222 -95.6565 92° East  Level Estimated